Time;durP1;ratioP1;P1;durP2;ratioP2;P2;SDS_P1;SDS_P2;PMS_P1;PMS_P2;Temp;Humidity;BMP_temperature;BMP_pressure;BME280_temperature;BME280_humidity;BME280_pressure;Samples;Min_cycle;Max_cycle;Signal;HPM_P1;HPM_P2
2023/05/22 00:02:11;;;;;;;4.77;4.27;;;;;;;17.81;57.00;94389.94;5068975;28;20198;-44
2023/05/22 00:04:38;;;;;;;4.90;4.23;;;;;;;17.84;57.10;94394.75;5069119;28;20186;-44
2023/05/22 00:07:06;;;;;;;4.57;4.13;;;;;;;17.82;57.22;94385.56;5069299;28;20229;-44
2023/05/22 00:09:34;;;;;;;5.63;4.23;;;;;;;17.75;57.13;94370.81;5068596;28;20292;-46
2023/05/22 00:12:01;;;;;;;5.00;4.30;;;;;;;17.86;57.39;94386.78;5072926;28;20190;-45
2023/05/22 00:14:28;;;;;;;5.13;4.30;;;;;;;17.89;57.33;94391.59;5072706;28;20556;-45
2023/05/22 00:16:57;;;;;;;6.17;4.70;;;;;;;17.88;57.32;94384.84;5072692;28;20625;-44
2023/05/22 00:19:23;;;;;;;5.17;4.67;;;;;;;17.93;57.45;94392.81;5073026;28;20269;-45
2023/05/22 00:21:51;;;;;;;4.30;4.00;;;;;;;17.87;57.24;94373.66;5072965;28;20190;-45
2023/05/22 00:24:18;;;;;;;4.93;4.43;;;;;;;17.97;57.45;94394.03;5072589;28;20186;-45
2023/05/22 00:26:46;;;;;;;5.30;4.40;;;;;;;17.98;57.54;94388.66;5072921;28;20240;-44
2023/05/22 00:29:13;;;;;;;5.33;4.63;;;;;;;18.00;57.41;94393.63;5072824;28;20201;-44
2023/05/22 00:31:40;;;;;;;4.80;4.30;;;;;;;18.02;57.33;94397.66;5072913;28;20194;-44
2023/05/22 00:34:07;;;;;;;5.40;4.40;;;;;;;18.04;57.33;94392.28;5073151;28;20194;-44
2023/05/22 00:36:33;;;;;;;8.60;4.53;;;;;;;18.05;57.52;94392.09;5077661;28;20198;-46
2023/05/22 00:39:00;;;;;;;5.13;4.13;;;;;;;17.93;57.42;94372.91;5077865;28;20186;-45
2023/05/22 00:41:27;;;;;;;5.40;4.27;;;;;;;18.03;57.60;94383.72;5074057;28;20202;-44
2023/05/22 00:43:55;;;;;;;7.53;4.50;;;;;;;18.03;57.47;94391.47;5072388;28;20670;-44
2023/05/22 00:46:23;;;;;;;5.83;4.27;;;;;;;18.10;57.28;94398.50;5072030;28;20218;-45
2023/05/22 00:48:51;;;;;;;6.13;4.00;;;;;;;18.08;57.35;94398.66;5072354;28;20209;-44
2023/05/22 00:51:20;;;;;;;5.70;4.30;;;;;;;17.97;57.59;94381.91;5072099;28;20301;-43
2023/05/22 00:53:47;;;;;;;7.73;4.90;;;;;;;18.08;57.55;94396.06;5072879;28;20190;-44
2023/05/22 00:56:15;;;;;;;5.33;4.20;;;;;;;17.96;57.60;94382.91;5080004;28;20191;-45
2023/05/22 00:58:42;;;;;;;5.03;4.53;;;;;;;17.82;57.66;94352.75;5072650;28;20182;-44
2023/05/22 01:01:11;;;;;;;4.80;4.30;;;;;;;18.07;57.59;94389.31;5072016;28;20654;-43
2023/05/22 01:03:43;;;;;;;7.57;4.63;;;;;;;18.07;57.52;94386.72;5071954;28;20186;-46
2023/05/22 01:06:11;;;;;;;6.63;4.50;;;;;;;18.02;57.78;94384.69;5072099;28;20552;-45
2023/05/22 01:08:38;;;;;;;5.17;4.67;;;;;;;18.07;57.73;94394.47;5071899;28;20256;-45
2023/05/22 01:11:12;;;;;;;5.57;4.60;;;;;;;18.07;57.74;94389.31;5072015;28;20746;-44
2023/05/22 01:13:46;;;;;;;5.97;4.33;;;;;;;18.08;57.69;94397.88;5072178;28;20182;-43
2023/05/22 01:16:28;;;;;;;5.70;4.03;;;;;;;18.06;57.82;94398.06;5072082;28;20185;-45
2023/05/22 01:19:02;;;;;;;5.10;4.30;;;;;;;18.07;57.96;94397.06;5071946;28;20217;-44
2023/05/22 01:21:37;;;;;;;4.50;4.10;;;;;;;18.05;57.74;94391.31;5070878;28;20228;-46
2023/05/22 01:24:27;;;;;;;4.13;3.80;;;;;;;18.04;57.93;94393.06;5071705;28;20201;-44
2023/05/22 01:27:24;;;;;;;6.97;4.43;;;;;;;18.04;57.90;94387.09;5071614;28;20244;-43
2023/05/22 01:30:09;;;;;;;8.07;4.10;;;;;;;18.02;58.14;94394.25;5071684;28;20192;-44
2023/05/22 01:32:38;;;;;;;6.73;4.60;;;;;;;17.97;58.19;94383.69;5072313;28;20235;-46
2023/05/22 01:35:09;;;;;;;4.60;4.20;;;;;;;17.76;58.13;94354.31;5074353;28;20216;-45
2023/05/22 01:37:37;;;;;;;7.50;4.33;;;;;;;17.94;58.20;94381.47;5073666;28;20265;-43
2023/05/22 01:40:07;;;;;;;5.33;4.77;;;;;;;17.90;58.42;94378.47;5072162;28;20198;-44
2023/05/22 01:42:35;;;;;;;6.77;4.73;;;;;;;17.86;58.58;94377.25;5071282;28;20802;-46
2023/05/22 01:45:02;;;;;;;5.00;4.40;;;;;;;17.85;58.58;94382.63;5071335;28;20190;-45
2023/05/22 01:47:29;;;;;;;5.30;4.63;;;;;;;17.80;58.58;94381.41;5071223;28;20217;-43
2023/05/22 01:49:58;;;;;;;7.00;4.37;;;;;;;17.77;58.75;94380.97;5071145;28;20571;-44
2023/05/22 01:52:33;;;;;;;5.47;4.57;;;;;;;17.62;58.76;94367.31;5071183;28;20649;-44
2023/05/22 01:55:05;;;;;;;5.63;4.40;;;;;;;17.69;58.98;94379.28;5071018;28;20550;-44
2023/05/22 01:57:37;;;;;;;6.30;4.60;;;;;;;17.66;59.09;94378.88;5071178;28;20187;-43
2023/05/22 02:00:09;;;;;;;5.97;4.73;;;;;;;17.62;59.17;94383.63;5070823;28;20209;-44
2023/05/22 02:02:38;;;;;;;6.00;4.50;;;;;;;17.59;59.29;94378.84;5070913;28;20239;-45
2023/05/22 02:05:11;;;;;;;4.83;4.43;;;;;;;17.54;59.46;94382.00;5071107;28;20187;-44
2023/05/22 02:07:40;;;;;;;5.93;4.73;;;;;;;17.51;59.45;94382.34;5070636;28;20304;-45
2023/05/22 02:10:10;;;;;;;5.50;4.37;;;;;;;17.48;59.66;94380.13;5071020;28;20201;-45
2023/05/22 02:12:37;;;;;;;4.93;4.43;;;;;;;17.33;59.73;94356.16;5070827;28;20213;-45
2023/05/22 02:15:07;;;;;;;7.67;4.17;;;;;;;17.38;59.85;94377.09;5070926;28;20190;-45
2023/05/22 02:17:39;;;;;;;5.63;4.40;;;;;;;17.38;59.91;94384.84;5070914;28;20577;-45
2023/05/22 02:20:13;;;;;;;4.97;4.40;;;;;;;17.33;60.01;94379.44;5070520;28;20277;-44
2023/05/22 02:22:42;;;;;;;5.90;5.00;;;;;;;17.18;60.11;94358.81;5056594;28;20182;-44
2023/05/22 02:25:13;;;;;;;5.80;4.47;;;;;;;17.26;60.27;94373.41;5070296;28;20273;-45
2023/05/22 02:27:41;;;;;;;5.13;4.63;;;;;;;17.25;60.19;94374.41;5070518;28;20326;-44
2023/05/22 02:30:09;;;;;;;5.83;4.73;;;;;;;17.23;60.29;94381.56;5070338;28;20282;-46
2023/05/22 02:32:36;;;;;;;5.30;4.17;;;;;;;17.20;60.25;94379.31;5070353;28;20642;-45
2023/05/22 02:35:03;;;;;;;8.17;4.67;;;;;;;17.16;60.57;94378.09;5069904;28;20186;-44
2023/05/22 02:37:31;;;;;;;5.20;4.30;;;;;;;17.13;60.68;94376.66;5070241;28;20216;-46
2023/05/22 02:39:59;;;;;;;5.03;4.47;;;;;;;17.11;60.85;94377.88;5069905;28;20206;-44
2023/05/22 02:42:26;;;;;;;7.10;4.90;;;;;;;16.60;60.99;94309.00;5070470;28;20236;-44
2023/05/22 02:44:53;;;;;;;5.27;4.67;;;;;;;17.08;61.00;94373.06;5070391;28;20187;-43
2023/05/22 02:47:20;;;;;;;5.57;4.97;;;;;;;17.04;60.90;94381.16;5070434;28;20229;-44
2023/05/22 02:49:47;;;;;;;5.83;4.87;;;;;;;17.01;61.07;94380.72;5070301;28;20244;-44
2023/05/22 02:52:14;;;;;;;5.73;4.87;;;;;;;16.99;61.31;94375.75;5069822;28;20178;-44
2023/05/22 02:54:42;;;;;;;5.40;4.90;;;;;;;16.97;61.19;94377.75;5069840;28;20676;-44
2023/05/22 02:57:09;;;;;;;7.03;4.90;;;;;;;16.93;61.26;94367.97;5070060;28;20318;-45
2023/05/22 02:59:36;;;;;;;5.20;4.70;;;;;;;16.82;61.25;94351.16;5069840;28;20291;-44
2023/05/22 03:02:03;;;;;;;10.10;5.03;;;;;;;16.92;61.31;94361.97;5069840;28;20288;-45
2023/05/22 03:04:30;;;;;;;5.20;4.57;;;;;;;16.91;61.24;94369.91;5069841;28;20577;-45
2023/05/22 03:06:56;;;;;;;6.67;4.17;;;;;;;16.91;61.56;94372.50;5069813;28;20641;-43
2023/05/22 03:09:23;;;;;;;5.23;4.73;;;;;;;16.89;61.29;94377.84;5069370;28;20569;-43
2023/05/22 03:11:52;;;;;;;5.87;4.83;;;;;;;16.82;61.57;94361.50;5069897;28;20189;-44
2023/05/22 03:14:18;;;;;;;5.43;4.57;;;;;;;16.86;61.48;94365.31;5069949;28;20209;-44
2023/05/22 03:16:45;;;;;;;5.47;4.97;;;;;;;16.85;61.58;94368.88;5069233;28;20616;-45
2023/05/22 03:19:13;;;;;;;5.60;4.70;;;;;;;16.91;61.60;94380.25;5070431;28;20194;-46
2023/05/22 03:21:43;;;;;;;6.03;4.63;;;;;;;16.91;61.65;94386.22;5070616;28;20205;-45
2023/05/22 03:24:10;;;;;;;5.27;4.77;;;;;;;16.89;61.47;94375.28;5070110;28;20179;-42
2023/05/22 03:26:36;;;;;;;7.47;4.93;;;;;;;16.93;61.66;94373.94;5069395;28;20257;-47
2023/05/22 03:29:05;;;;;;;8.03;4.47;;;;;;;16.97;61.60;94376.94;5078167;28;20217;-44
2023/05/22 03:31:33;;;;;;;7.53;5.23;;;;;;;16.99;61.42;94375.75;5074505;28;20199;-45
2023/05/22 03:34:01;;;;;;;5.73;4.60;;;;;;;17.03;61.46;94383.94;5071276;28;20194;-48
2023/05/22 03:36:28;;;;;;;6.83;4.63;;;;;;;17.07;61.55;94382.59;5070594;28;20625;-45
2023/05/22 03:38:55;;;;;;;6.07;4.87;;;;;;;17.11;61.34;94377.88;5070644;28;20250;-49
2023/05/22 03:41:22;;;;;;;7.37;4.70;;;;;;;17.13;61.37;94374.09;5074042;28;20287;-44
2023/05/22 03:43:48;;;;;;;7.23;5.20;;;;;;;17.20;61.46;94377.53;5077765;28;20190;-43
2023/05/22 03:46:17;;;;;;;7.73;5.00;;;;;;;17.26;61.29;94379.38;5075299;28;20209;-44
2023/05/22 03:48:43;;;;;;;5.47;4.97;;;;;;;17.32;61.30;94383.00;5069753;28;20234;-44
2023/05/22 03:51:10;;;;;;;5.33;4.07;;;;;;;17.38;61.03;94382.25;5071719;28;20190;-46
2023/05/22 03:53:37;;;;;;;11.10;4.83;;;;;;;17.44;61.00;94385.88;5078795;28;20178;-44
2023/05/22 03:56:04;;;;;;;7.07;5.27;;;;;;;17.50;61.04;94379.97;5083461;28;20195;-46
2023/05/22 03:58:31;;;;;;;7.43;4.67;;;;;;;17.54;60.87;94379.41;5081720;28;20206;-44
2023/05/22 04:00:59;;;;;;;7.53;4.63;;;;;;;17.58;60.79;94379.03;5082833;28;20198;-46
2023/05/22 04:03:28;;;;;;;5.47;4.70;;;;;;;17.67;60.77;94383.06;5083626;28;20189;-45
2023/05/22 04:05:55;;;;;;;6.93;4.67;;;;;;;17.57;60.65;94360.09;5082915;28;20641;-44
2023/05/22 04:08:22;;;;;;;5.60;5.00;;;;;;;17.80;60.75;94386.56;5083493;28;20914;-45
2023/05/22 04:10:49;;;;;;;6.27;4.60;;;;;;;17.88;60.47;94392.59;5075809;28;20201;-45
2023/05/22 04:13:19;;;;;;;6.30;5.03;;;;;;;17.85;60.47;94373.06;5068743;28;20569;-46
2023/05/22 04:15:46;;;;;;;6.67;4.97;;;;;;;18.02;60.50;94389.88;5068924;28;20226;-47
2023/05/22 04:18:13;;;;;;;5.50;4.60;;;;;;;17.87;60.30;94354.75;5068864;28;20190;-43
2023/05/22 04:20:42;;;;;;;5.77;4.83;;;;;;;18.18;60.31;94386.19;5068654;28;20186;-45
2023/05/22 04:23:09;;;;;;;7.30;4.77;;;;;;;18.12;60.03;94357.69;5067886;28;20214;-44
2023/05/22 04:25:36;;;;;;;5.90;5.30;;;;;;;18.34;60.01;94377.28;5068089;28;20214;-44
2023/05/22 04:28:05;;;;;;;7.50;5.20;;;;;;;18.46;59.93;94385.31;5068318;28;20225;-45
2023/05/22 04:30:33;;;;;;;7.60;4.73;;;;;;;18.51;59.80;94382.94;5067011;28;20190;-45
2023/05/22 04:33:00;;;;;;;5.97;4.57;;;;;;;18.66;59.61;94390.56;5068804;28;20194;-45
2023/05/22 04:35:29;;;;;;;6.87;5.73;;;;;;;18.75;59.42;94390.22;5068107;28;20190;-45
2023/05/22 04:38:00;;;;;;;7.23;4.93;;;;;;;18.90;59.27;94392.63;5068399;28;20205;-45
2023/05/22 04:40:28;;;;;;;5.10;4.53;;;;;;;19.07;59.04;94393.06;5068506;28;20201;-45
2023/05/22 04:42:58;;;;;;;9.60;5.60;;;;;;;19.26;58.77;94394.09;5072092;28;20686;-44
2023/05/22 04:45:25;;;;;;;7.47;5.10;;;;;;;19.46;58.41;94401.88;5069129;28;20187;-46
2023/05/22 04:47:52;;;;;;;5.23;4.70;;;;;;;19.63;58.25;94403.09;5068102;28;20211;-43
2023/05/22 04:50:19;;;;;;;8.23;4.87;;;;;;;19.85;57.95;94400.28;5068430;28;20268;-45
2023/05/22 04:52:46;;;;;;;5.17;4.70;;;;;;;20.09;57.55;94402.25;5068936;28;20634;-46
2023/05/22 04:55:14;;;;;;;5.50;4.67;;;;;;;20.35;57.21;94398.78;5068685;28;20388;-43
2023/05/22 04:57:43;;;;;;;7.93;4.17;;;;;;;20.56;57.21;94392.53;5071525;28;20186;-47
2023/05/22 05:00:12;;;;;;;7.40;4.20;;;;;;;20.83;66.89;94393.19;5072536;28;20689;-44
2023/05/22 05:02:39;;;;;;;5.63;4.03;;;;;;;21.11;68.94;94392.81;5071780;28;20190;-48
2023/05/22 05:05:07;;;;;;;5.67;3.80;;;;;;;21.53;68.77;94400.97;5072005;28;20278;-45
2023/05/22 05:07:37;;;;;;;6.70;3.75;;;;;;;22.02;68.65;94400.16;5071410;28;20260;-45
2023/05/22 05:10:05;;;;;;;7.80;3.67;;;;;;;22.63;67.44;94403.72;5072191;28;20267;-45
2023/05/22 05:12:33;;;;;;;7.07;3.75;;;;;;;23.31;65.70;94402.63;5071836;28;20568;-46
2023/05/22 05:15:00;;;;;;;5.65;3.78;;;;;;;24.04;63.81;94406.69;5072518;28;20198;-48
2023/05/22 05:17:27;;;;;;;7.65;3.80;;;;;;;24.77;61.48;94411.38;5072482;28;20262;-46
2023/05/22 05:19:54;;;;;;;4.28;3.75;;;;;;;25.41;58.98;94408.63;5072579;28;20199;-44
2023/05/22 05:22:21;;;;;;;3.90;3.53;;;;;;;25.97;57.20;94414.75;5072680;28;20190;-45
2023/05/22 05:24:48;;;;;;;7.35;4.65;;;;;;;26.50;55.19;94412.59;5072566;28;20660;-47
2023/05/22 05:27:15;;;;;;;8.48;4.63;;;;;;;27.02;54.04;94407.69;5072105;28;20222;-45
2023/05/22 05:29:43;;;;;;;4.70;3.95;;;;;;;27.54;52.52;94408.19;5072647;28;20257;-43
2023/05/22 05:32:11;;;;;;;8.90;4.65;;;;;;;27.93;51.62;94399.06;5071536;28;20263;-45
2023/05/22 05:34:38;;;;;;;7.75;3.90;;;;;;;28.40;50.57;94408.03;5072202;28;20650;-44
2023/05/22 05:37:05;;;;;;;7.32;4.30;;;;;;;28.84;49.53;94426.91;5072023;28;20194;-44
2023/05/22 05:39:32;;;;;;;10.20;5.20;;;;;;;29.21;48.25;94418.88;5067581;28;20189;-45
2023/05/22 05:41:59;;;;;;;5.95;4.63;;;;;;;29.56;47.39;94414.72;5071374;28;20190;-43
2023/05/22 05:44:26;;;;;;;14.55;4.78;;;;;;;29.89;47.06;94423.19;5071523;28;20625;-44
2023/05/22 05:46:54;;;;;;;8.77;4.47;;;;;;;30.16;45.95;94425.53;5072756;28;20201;-43
2023/05/22 05:49:22;;;;;;;7.07;4.75;;;;;;;30.45;45.34;94423.09;5061165;28;20323;-43
2023/05/22 05:51:48;;;;;;;8.30;4.50;;;;;;;30.74;44.66;94423.28;5067964;28;20217;-44
2023/05/22 05:54:15;;;;;;;6.95;4.00;;;;;;;31.02;43.85;94432.41;5070984;28;20654;-45
2023/05/22 05:56:42;;;;;;;7.22;4.38;;;;;;;31.29;43.08;94431.22;5071542;28;20237;-43
2023/05/22 05:59:09;;;;;;;7.18;4.32;;;;;;;31.50;42.75;94427.38;5070853;28;20183;-44
2023/05/22 06:01:38;;;;;;;8.02;4.53;;;;;;;31.69;42.32;94427.50;5071154;28;20217;-45
2023/05/22 06:04:06;;;;;;;6.32;3.88;;;;;;;31.91;41.53;94419.97;5080873;28;20201;-45
2023/05/22 06:06:35;;;;;;;9.80;4.47;;;;;;;32.15;41.24;94422.63;5072802;28;20672;-44
2023/05/22 06:09:02;;;;;;;7.50;4.78;;;;;;;32.38;40.79;94426.41;5068206;28;20241;-44
2023/05/22 06:11:29;;;;;;;7.18;4.88;;;;;;;32.55;40.54;94427.81;5070791;28;20225;-44
2023/05/22 06:13:55;;;;;;;6.28;4.15;;;;;;;32.64;40.05;94426.94;5069777;28;20642;-44
2023/05/22 06:16:22;;;;;;;8.20;4.78;;;;;;;32.71;39.83;94431.88;5069890;28;20201;-46
2023/05/22 06:18:51;;;;;;;11.10;5.18;;;;;;;32.78;39.49;94426.25;5069885;28;20205;-44
2023/05/22 06:21:20;;;;;;;7.07;4.40;;;;;;;32.82;39.09;94429.91;5069443;28;20726;-45
2023/05/22 06:23:48;;;;;;;6.35;4.45;;;;;;;32.86;38.64;94431.72;5069653;28;20198;-45
2023/05/22 06:26:16;;;;;;;9.13;4.38;;;;;;;32.84;38.88;94428.53;5066942;28;20230;-44
2023/05/22 06:28:43;;;;;;;9.48;4.28;;;;;;;32.65;38.65;94420.56;5069180;28;20206;-44
2023/05/22 06:31:10;;;;;;;6.90;3.90;;;;;;;32.44;38.81;94425.28;5069581;28;20198;-43
2023/05/22 06:33:39;;;;;;;9.40;4.43;;;;;;;32.20;38.36;94430.53;5069598;28;20191;-42
2023/05/22 06:36:07;;;;;;;5.28;4.65;;;;;;;31.90;38.72;94423.66;5069077;28;20185;-45
2023/05/22 06:38:36;;;;;;;6.72;4.20;;;;;;;31.65;39.00;94432.59;5069320;28;20722;-44
2023/05/22 06:41:03;;;;;;;4.93;4.10;;;;;;;31.42;39.52;94427.97;5069131;28;20197;-43
2023/05/22 06:43:30;;;;;;;5.20;4.00;;;;;;;31.17;39.57;94424.38;5069529;28;20653;-45
2023/05/22 06:45:57;;;;;;;10.00;4.60;;;;;;;30.95;39.89;94429.25;5068905;28;21063;-44
2023/05/22 06:48:24;;;;;;;6.10;4.40;;;;;;;30.75;40.36;94427.53;5069245;28;20232;-45
2023/05/22 06:50:50;;;;;;;5.78;4.50;;;;;;;30.71;40.36;94426.44;5068353;28;20641;-45
2023/05/22 06:53:17;;;;;;;7.07;4.32;;;;;;;30.68;40.08;94427.75;5069603;28;20190;-44
2023/05/22 06:55:45;;;;;;;5.75;3.85;;;;;;;30.72;40.11;94425.41;5069676;28;20259;-44
2023/05/22 06:58:12;;;;;;;6.97;4.20;;;;;;;30.78;40.04;94426.16;5069417;28;20190;-44
2023/05/22 07:00:39;;;;;;;6.13;4.30;;;;;;;30.99;39.65;94427.66;5069547;28;20276;-45
2023/05/22 07:03:06;;;;;;;6.63;3.70;;;;;;;31.21;39.34;94425.41;5069158;28;20615;-43
2023/05/22 07:05:33;;;;;;;4.20;3.80;;;;;;;31.29;39.09;94428.59;5068935;28;20194;-44
2023/05/22 07:08:00;;;;;;;10.10;4.03;;;;;;;31.41;38.70;94424.53;5069135;28;20194;-44
2023/05/22 07:10:27;;;;;;;4.55;3.60;;;;;;;31.66;38.34;94420.16;5069110;28;20198;-45
2023/05/22 07:12:55;;;;;;;4.40;3.85;;;;;;;31.91;37.64;94421.81;5068566;28;20275;-42
2023/05/22 07:15:22;;;;;;;7.18;4.45;;;;;;;32.12;37.48;94425.84;5069051;28;20213;-43
2023/05/22 07:17:48;;;;;;;5.97;4.28;;;;;;;32.21;36.76;94421.53;5069153;28;20244;-45
2023/05/22 07:20:16;;;;;;;8.88;3.78;;;;;;;32.17;36.46;94425.03;5068084;28;20205;-44
2023/05/22 07:22:43;;;;;;;7.03;3.72;;;;;;;32.05;36.39;94412.16;5068664;28;20276;-43
2023/05/22 07:25:10;;;;;;;5.68;4.15;;;;;;;32.00;36.53;94404.28;5069331;28;20225;-45
2023/05/22 07:27:37;;;;;;;6.05;4.47;;;;;;;32.07;36.41;94414.53;5068818;28;20287;-45
2023/05/22 07:30:06;;;;;;;4.28;3.72;;;;;;;32.14;36.49;94422.94;5069047;28;20216;-42
2023/05/22 07:32:33;;;;;;;4.60;3.53;;;;;;;32.16;36.29;94421.56;5066424;28;20198;-44
2023/05/22 07:35:00;;;;;;;5.93;4.00;;;;;;;32.17;36.15;94417.88;5069117;28;20259;-45
2023/05/22 07:37:27;;;;;;;6.75;4.03;;;;;;;32.16;36.32;94421.56;5069139;28;20308;-44
2023/05/22 07:39:53;;;;;;;6.63;4.50;;;;;;;32.01;36.10;94397.91;5068072;28;20259;-46
2023/05/22 07:42:20;;;;;;;7.95;4.28;;;;;;;32.05;36.30;94414.81;5067426;28;20198;-46
2023/05/22 07:44:47;;;;;;;5.75;3.80;;;;;;;31.77;36.45;94387.25;5068685;28;20191;-50
2023/05/22 07:47:15;;;;;;;5.88;3.85;;;;;;;31.88;36.17;94412.59;5069745;28;20646;-46
2023/05/22 07:49:42;;;;;;;4.60;4.15;;;;;;;31.97;36.44;94410.13;5069400;28;20210;-46
2023/05/22 07:52:09;;;;;;;4.55;4.00;;;;;;;32.07;36.02;94407.38;5069030;28;20186;-46
2023/05/22 07:54:36;;;;;;;5.90;4.50;;;;;;;32.08;35.90;94411.63;5069115;28;20202;-43
2023/05/22 07:57:03;;;;;;;7.50;4.13;;;;;;;32.05;35.75;94409.53;5068891;28;20193;-44
2023/05/22 07:59:30;;;;;;;4.53;3.65;;;;;;;32.05;35.86;94408.75;5068612;28;20191;-45
2023/05/22 08:01:56;;;;;;;8.77;4.47;;;;;;;32.18;35.75;94402.78;5068990;28;20693;-44
2023/05/22 08:04:25;;;;;;;5.07;3.65;;;;;;;32.37;35.84;94413.44;5067757;28;20198;-44
2023/05/22 08:06:51;;;;;;;6.65;4.18;;;;;;;32.49;35.41;94407.78;5068877;28;20217;-46
2023/05/22 08:09:20;;;;;;;6.90;4.00;;;;;;;32.58;35.15;94417.47;5069100;28;20214;-44
2023/05/22 08:11:46;;;;;;;5.85;4.15;;;;;;;32.61;34.88;94410.81;5068119;28;20218;-44
2023/05/22 08:14:13;;;;;;;8.55;4.45;;;;;;;32.62;35.01;94409.75;5068394;28;20645;-45
2023/05/22 08:16:40;;;;;;;6.90;4.70;;;;;;;32.68;35.03;94414.69;5068427;28;20618;-43
2023/05/22 08:19:07;;;;;;;7.55;3.95;;;;;;;32.71;34.86;94408.81;5068171;28;20182;-44
2023/05/22 08:21:36;;;;;;;6.78;4.03;;;;;;;32.75;34.76;94411.69;5067778;28;20187;-43
2023/05/22 08:24:03;;;;;;;6.72;3.80;;;;;;;32.80;34.78;94405.56;5068412;28;20260;-45
2023/05/22 08:26:29;;;;;;;6.10;3.83;;;;;;;32.74;34.79;94410.13;5067818;28;20234;-45
2023/05/22 08:28:56;;;;;;;7.22;3.30;;;;;;;32.71;34.72;94410.69;5067402;28;20213;-45
2023/05/22 08:31:23;;;;;;;5.22;3.83;;;;;;;32.72;34.79;94407.75;5069539;28;20260;-47
2023/05/22 08:33:50;;;;;;;4.78;3.20;;;;;;;32.60;35.00;94409.22;5072989;28;20174;-44
2023/05/22 08:36:17;;;;;;;3.97;3.13;;;;;;;32.48;35.03;94409.66;5073787;28;20179;-44
2023/05/22 08:38:45;;;;;;;3.95;3.50;;;;;;;32.45;34.92;94395.09;5080261;28;20209;-47
2023/05/22 08:41:12;;;;;;;5.97;3.35;;;;;;;32.54;35.03;94407.72;5071645;28;20244;-44
2023/05/22 08:43:40;;;;;;;5.18;3.28;;;;;;;32.54;35.30;94415.66;5071999;28;20197;-43
2023/05/22 08:46:08;;;;;;;4.80;3.47;;;;;;;32.53;35.06;94416.75;5072327;28;20190;-44
2023/05/22 08:48:35;;;;;;;3.90;3.50;;;;;;;32.52;34.88;94413.31;5072149;28;20225;-45
2023/05/22 08:51:04;;;;;;;6.07;3.33;;;;;;;32.47;34.97;94410.69;5071269;28;20194;-46
2023/05/22 08:53:35;;;;;;;5.60;3.35;;;;;;;32.39;34.94;94403.41;5072073;28;20619;-45
2023/05/22 08:56:05;;;;;;;4.10;3.63;;;;;;;32.26;34.46;94399.53;5071627;28;20225;-45
2023/05/22 08:58:34;;;;;;;4.32;3.10;;;;;;;32.02;34.60;94401.34;5071659;28;20209;-46
2023/05/22 09:01:02;;;;;;;4.20;3.13;;;;;;;31.73;34.75;94394.16;5071933;28;20186;-42
2023/05/22 09:03:31;;;;;;;4.97;3.58;;;;;;;31.61;35.03;94391.09;5070744;28;20190;-44
2023/05/22 09:05:58;;;;;;;4.30;3.47;;;;;;;31.57;34.94;94384.78;5071700;28;20319;-45
2023/05/22 09:08:25;;;;;;;5.10;3.25;;;;;;;31.66;35.36;94393.69;5071294;28;20298;-44
2023/05/22 09:10:53;;;;;;;6.45;3.13;;;;;;;31.69;34.90;94393.13;5071152;28;20222;-44
2023/05/22 09:13:28;;;;;;;3.58;2.90;;;;;;;31.71;35.01;94409.53;5071969;28;20197;-46
2023/05/22 09:15:59;;;;;;;5.47;2.72;;;;;;;31.69;35.25;94396.59;5071015;28;20178;-45
2023/05/22 09:18:28;;;;;;;2.90;2.70;;;;;;;31.63;34.84;94391.59;5071663;28;20209;-44
2023/05/22 09:20:57;;;;;;;3.63;2.95;;;;;;;31.53;34.92;94387.19;5069392;28;20222;-44
2023/05/22 09:23:27;;;;;;;3.13;2.90;;;;;;;31.38;35.18;94392.59;5068287;28;20197;-44
2023/05/22 09:25:55;;;;;;;3.85;2.80;;;;;;;30.99;35.41;94357.13;5068392;28;20201;-44
2023/05/22 09:28:22;;;;;;;4.60;3.15;;;;;;;30.96;35.42;94392.03;5068494;28;20276;-45
2023/05/22 09:30:51;;;;;;;3.85;2.65;;;;;;;30.86;35.49;94401.84;5068117;28;20562;-45
2023/05/22 09:33:18;;;;;;;4.78;3.00;;;;;;;30.67;35.66;94375.25;5068657;28;20216;-45
2023/05/22 09:35:47;;;;;;;4.18;2.85;;;;;;;30.72;35.40;94391.88;5068625;28;20194;-44
2023/05/22 09:38:14;;;;;;;10.98;3.15;;;;;;;30.43;35.92;94354.75;5066367;28;20661;-44
2023/05/22 09:40:41;;;;;;;4.47;2.80;;;;;;;30.34;35.89;94360.84;5070747;28;20693;-45
2023/05/22 09:43:09;;;;;;;3.22;2.80;;;;;;;30.37;36.13;94398.06;5069645;28;20202;-45
2023/05/22 09:45:36;;;;;;;7.20;2.97;;;;;;;30.22;36.63;94390.97;5070843;28;20194;-46
2023/05/22 09:48:05;;;;;;;6.32;3.20;;;;;;;30.07;37.26;94390.19;5071127;28;20190;-44
2023/05/22 09:50:32;;;;;;;5.43;3.42;;;;;;;29.91;37.30;94392.81;5070687;28;20226;-43
2023/05/22 09:53:01;;;;;;;4.47;2.95;;;;;;;29.72;37.70;94389.16;5071179;28;20213;-45
2023/05/22 09:55:29;;;;;;;2.90;2.65;;;;;;;29.41;38.01;94373.34;5070513;28;20194;-42
2023/05/22 09:57:57;;;;;;;3.20;2.80;;;;;;;29.22;38.43;94367.75;5071881;28;20221;-44
2023/05/22 10:00:25;;;;;;;3.88;3.47;;;;;;;29.18;38.81;94392.25;5070777;28;20201;-45
2023/05/22 10:02:57;;;;;;;4.18;2.95;;;;;;;29.03;38.73;94397.50;5070153;28;20191;-46
2023/05/22 10:05:30;;;;;;;2.90;2.63;;;;;;;28.88;38.90;94395.59;5067453;28;20740;-47
2023/05/22 10:08:02;;;;;;;4.28;3.00;;;;;;;28.74;39.59;94398.69;5070568;28;20195;-45
2023/05/22 10:10:29;;;;;;;3.97;2.92;;;;;;;28.60;39.74;94391.56;5069746;28;20228;-44
2023/05/22 10:12:57;;;;;;;6.60;2.97;;;;;;;28.50;40.04;94400.22;5070056;28;20607;-45
2023/05/22 10:15:25;;;;;;;3.92;3.00;;;;;;;28.41;40.12;94394.63;5069706;28;20201;-42
2023/05/22 10:17:52;;;;;;;3.35;2.88;;;;;;;28.36;40.20;94394.59;5070003;28;20186;-44
2023/05/22 10:20:20;;;;;;;4.47;3.03;;;;;;;28.30;40.54;94400.06;5069978;28;20208;-45
2023/05/22 10:22:48;;;;;;;5.13;3.05;;;;;;;28.21;40.81;94397.13;5069898;28;20187;-45
2023/05/22 10:25:17;;;;;;;5.30;2.97;;;;;;;28.10;41.27;94396.25;5069612;28;20226;-45
2023/05/22 10:27:44;;;;;;;5.90;3.10;;;;;;;27.80;41.01;94370.56;5070075;28;20586;-45
2023/05/22 10:30:22;;;;;;;4.03;2.92;;;;;;;27.77;41.81;94394.75;5070388;28;20225;-44
2023/05/22 10:32:56;;;;;;;4.18;3.30;;;;;;;27.59;42.17;94392.47;5070575;28;20187;-45
2023/05/22 10:35:29;;;;;;;4.47;3.03;;;;;;;27.41;42.48;94398.88;5070988;28;20191;-45
2023/05/22 10:38:11;;;;;;;7.18;2.95;;;;;;;27.23;43.08;94394.78;5070126;28;20206;-43
2023/05/22 10:40:38;;;;;;;5.57;3.10;;;;;;;27.06;43.31;94404.56;5068748;28;20607;-45
2023/05/22 10:43:05;;;;;;;4.10;2.75;;;;;;;26.89;43.23;94410.69;5069827;28;20205;-45
2023/05/22 10:45:32;;;;;;;3.97;3.00;;;;;;;26.71;43.51;94432.78;5069692;28;20576;-45
2023/05/22 10:48:03;;;;;;;3.53;3.22;;;;;;;26.52;43.96;94448.06;5069526;28;20185;-44
2023/05/22 10:50:30;;;;;;;4.60;2.90;;;;;;;26.34;44.64;94450.94;5069633;28;20210;-43
2023/05/22 10:53:23;;;;;;;6.00;3.50;;;;;;;26.13;45.00;94426.25;5069333;28;20194;-45
2023/05/22 10:55:50;;;;;;;6.15;3.35;;;;;;;26.06;45.44;94423.00;5069492;28;20540;-44
2023/05/22 10:58:17;;;;;;;5.70;2.97;;;;;;;26.01;45.47;94420.31;5069737;28;20202;-43
2023/05/22 11:00:44;;;;;;;4.82;3.22;;;;;;;25.98;45.99;94421.56;5069311;28;20187;-44
2023/05/22 11:03:11;;;;;;;3.80;3.50;;;;;;;25.98;45.79;94421.56;5069132;28;20183;-43
2023/05/22 11:05:39;;;;;;;4.13;3.10;;;;;;;25.81;46.06;94376.25;5069331;28;20796;-44
2023/05/22 11:08:38;;;;;;;3.38;3.17;;;;;;;26.13;45.93;94410.53;5069634;28;20273;-44
2023/05/22 11:11:13;;;;;;;4.05;3.30;;;;;;;26.27;46.11;94416.22;5025469;28;20273;-46
2023/05/22 11:13:42;;;;;;;5.43;3.08;;;;;;;26.38;45.68;94406.63;5032895;28;20191;-45
2023/05/22 11:16:10;;;;;;;4.65;2.83;;;;;;;26.45;45.55;94405.47;5027328;28;20192;-46
2023/05/22 11:18:37;;;;;;;5.10;3.45;;;;;;;26.67;45.37;94402.06;5025826;28;20184;-45
2023/05/22 11:21:04;;;;;;;3.97;3.10;;;;;;;26.62;45.55;94368.69;5026928;28;20302;-43
2023/05/22 11:23:36;;;;;;;4.10;3.10;;;;;;;26.90;45.25;94390.47;5027051;28;20210;-45
2023/05/22 11:26:23;;;;;;;7.28;3.38;;;;;;;26.93;45.11;94385.53;5027098;28;20223;-45
2023/05/22 11:28:52;;;;;;;3.50;2.85;;;;;;;26.91;45.58;94384.22;5026697;28;20559;-47
2023/05/22 11:31:21;;;;;;;3.80;3.22;;;;;;;26.74;45.69;94377.22;5026997;28;20243;-49
2023/05/22 11:33:49;;;;;;;3.40;2.95;;;;;;;26.53;45.95;94383.28;5026755;28;21858;-42
2023/05/22 11:36:16;;;;;;;4.72;2.88;;;;;;;26.42;46.33;94437.38;5024521;28;20203;-44
2023/05/22 11:38:43;;;;;;;6.05;3.47;;;;;;;26.20;47.03;94444.44;5025675;28;20217;-44
2023/05/22 11:41:11;;;;;;;4.60;3.25;;;;;;;25.95;47.73;94447.47;5026758;28;20429;-45